Time;durP1;ratioP1;P1;durP2;ratioP2;P2;SDS_P1;SDS_P2;PMS_P1;PMS_P2;Temp;Humidity;BMP_temperature;BMP_pressure;BME280_temperature;BME280_humidity;BME280_pressure;Samples;Min_cycle;Max_cycle;Signal;HPM_P1;HPM_P2
2023/05/03 00:00:25;;;;;;;3.13;2.03;;;5.30;99.90;;;;;;6276019;22;20027;-70
2023/05/03 00:02:52;;;;;;;2.00;1.90;;;5.20;99.90;;;;;;6303121;22;20080;-70
2023/05/03 00:05:19;;;;;;;3.13;2.30;;;5.20;99.90;;;;;;6303066;22;20086;-70
2023/05/03 00:07:45;;;;;;;5.88;2.13;;;5.20;99.90;;;;;;6302462;22;20098;-71
2023/05/03 00:10:12;;;;;;;5.45;2.47;;;5.20;99.90;;;;;;6302678;22;20025;-70
2023/05/03 00:12:42;;;;;;;3.85;2.22;;;5.20;99.90;;;;;;6302350;22;20446;-70
2023/05/03 00:15:09;;;;;;;5.55;2.03;;;5.30;99.90;;;;;;6273494;22;20011;-70
2023/05/03 00:17:35;;;;;;;2.45;2.25;;;5.30;99.90;;;;;;6302284;22;20026;-70
2023/05/03 00:20:03;;;;;;;3.75;2.08;;;5.30;99.90;;;;;;6301806;22;20344;-70
2023/05/03 00:22:29;;;;;;;4.35;2.47;;;5.30;99.90;;;;;;6302133;22;20055;-71
2023/05/03 00:24:55;;;;;;;3.97;2.03;;;5.30;99.90;;;;;;6302230;22;20026;-70
2023/05/03 00:27:21;;;;;;;1.90;1.73;;;5.20;99.90;;;;;;6274250;22;20098;-70
2023/05/03 00:29:49;;;;;;;4.07;2.58;;;5.20;99.90;;;;;;6274542;22;20051;-70
2023/05/03 00:32:14;;;;;;;4.65;2.40;;;5.20;99.90;;;;;;6302116;22;20019;-70
2023/05/03 00:34:40;;;;;;;4.32;2.08;;;5.20;99.90;;;;;;6302813;22;20324;-70
2023/05/03 00:37:06;;;;;;;4.53;2.42;;;5.10;99.90;;;;;;6302844;22;20385;-70
2023/05/03 00:39:32;;;;;;;2.00;1.90;;;5.00;99.90;;;;;;6302766;22;20020;-70
2023/05/03 00:41:58;;;;;;;2.50;2.30;;;5.10;99.90;;;;;;6302305;22;20338;-71
2023/05/03 00:44:24;;;;;;;4.60;2.30;;;5.00;99.90;;;;;;6302499;22;20019;-70
2023/05/03 00:46:51;;;;;;;3.70;2.35;;;5.10;99.90;;;;;;6302811;22;20026;-70
2023/05/03 00:49:17;;;;;;;3.47;2.05;;;5.10;99.90;;;;;;6302587;22;20351;-70
2023/05/03 00:51:43;;;;;;;3.05;2.22;;;5.00;99.90;;;;;;6275220;22;20015;-70
2023/05/03 00:54:10;;;;;;;4.95;2.42;;;4.90;99.90;;;;;;6302443;22;20015;-70
2023/05/03 00:56:37;;;;;;;3.88;2.10;;;4.90;99.90;;;;;;6302627;22;20019;-70
2023/05/03 00:59:04;;;;;;;3.13;2.38;;;4.80;99.90;;;;;;6303143;22;20017;-70
2023/05/03 01:01:31;;;;;;;5.00;2.20;;;4.90;99.90;;;;;;6301142;22;20466;-70
2023/05/03 01:04:01;;;;;;;2.40;1.90;;;4.90;99.90;;;;;;6301582;22;20019;-70
2023/05/03 01:06:33;;;;;;;3.28;2.00;;;5.00;99.90;;;;;;6302230;22;20047;-71
2023/05/03 01:09:02;;;;;;;3.50;2.10;;;4.70;99.90;;;;;;6302412;22;20015;-70
2023/05/03 01:11:54;;;;;;;3.70;1.90;;;4.80;99.90;;;;;;6302133;22;20015;-70
2023/05/03 01:14:53;;;;;;;4.22;2.13;;;4.80;99.90;;;;;;6274188;22;20015;-70
2023/05/03 01:17:26;;;;;;;3.80;2.33;;;4.80;99.90;;;;;;6302209;22;20019;-70
2023/05/03 01:19:59;;;;;;;5.05;2.45;;;4.90;99.90;;;;;;6303625;22;20015;-69
2023/05/03 01:22:37;;;;;;;4.28;2.20;;;4.80;99.90;;;;;;6276866;22;20701;-70
2023/05/03 01:25:10;;;;;;;4.25;2.38;;;4.80;99.90;;;;;;6304318;22;20064;-70
2023/05/03 01:27:37;;;;;;;3.90;2.45;;;4.70;99.90;;;;;;6304112;22;20022;-70
2023/05/03 01:30:05;;;;;;;4.20;2.20;;;4.60;99.90;;;;;;6304430;22;20094;-69
2023/05/03 01:32:58;;;;;;;6.38;2.53;;;4.70;99.90;;;;;;6304054;22;20030;-69
2023/05/03 01:35:43;;;;;;;;;;;4.70;99.90;;;;;;6277314;22;20035;-69
2023/05/03 01:38:10;;;;;;;3.60;2.33;;;4.60;99.90;;;;;;6304330;22;19915;-69
2023/05/03 01:40:59;;;;;;;5.25;2.40;;;4.50;99.90;;;;;;6276344;22;20023;-69
2023/05/03 01:43:30;;;;;;;4.00;2.38;;;4.60;99.90;;;;;;6304457;22;20026;-69
2023/05/03 01:45:56;;;;;;;4.43;2.63;;;4.50;99.90;;;;;;6304494;22;20335;-69
2023/05/03 01:48:22;;;;;;;6.43;2.38;;;4.60;99.90;;;;;;6302258;22;20019;-70
2023/05/03 01:50:47;;;;;;;4.95;2.58;;;4.60;99.90;;;;;;6303724;22;20013;-69
2023/05/03 01:53:13;;;;;;;4.43;2.30;;;4.60;99.90;;;;;;6275443;22;20012;-69
2023/05/03 01:55:39;;;;;;;5.82;2.42;;;4.70;99.90;;;;;;6303549;22;20078;-69
2023/05/03 01:58:05;;;;;;;4.95;2.20;;;4.60;99.90;;;;;;6303262;22;20019;-69
2023/05/03 02:00:31;;;;;;;2.42;2.15;;;4.50;99.90;;;;;;6275994;22;20053;-69
2023/05/03 02:02:57;;;;;;;5.93;2.40;;;4.50;99.90;;;;;;6303931;22;20022;-69
2023/05/03 02:05:23;;;;;;;4.10;2.40;;;4.40;99.90;;;;;;6304058;22;20007;-68
2023/05/03 02:07:48;;;;;;;3.22;2.63;;;4.50;99.90;;;;;;6303786;22;20026;-69
2023/05/03 02:10:15;;;;;;;2.60;2.40;;;4.50;99.90;;;;;;6304088;22;20084;-68
2023/05/03 02:12:42;;;;;;;2.72;2.53;;;4.40;99.90;;;;;;6276771;22;20019;-69
2023/05/03 02:15:08;;;;;;;3.58;2.35;;;4.40;99.90;;;;;;6304103;22;20011;-69
2023/05/03 02:17:34;;;;;;;5.38;2.50;;;4.40;99.90;;;;;;6304195;22;20023;-69
2023/05/03 02:20:00;;;;;;;2.78;2.58;;;4.40;99.90;;;;;;6303547;22;20047;-69
2023/05/03 02:22:26;;;;;;;3.72;3.03;;;4.30;99.90;;;;;;6303874;22;20022;-69
2023/05/03 02:24:51;;;;;;;2.78;2.22;;;4.50;99.90;;;;;;6304182;22;20042;-70
2023/05/03 02:27:17;;;;;;;6.85;3.20;;;4.50;99.90;;;;;;6303749;22;20030;-69
2023/05/03 02:29:43;;;;;;;2.47;2.20;;;4.50;99.90;;;;;;6303349;22;20011;-70
2023/05/03 02:32:08;;;;;;;5.30;3.10;;;4.40;99.90;;;;;;6303290;22;20027;-69
2023/05/03 02:34:35;;;;;;;7.25;2.85;;;4.50;99.90;;;;;;6301473;22;20092;-70
2023/05/03 02:37:00;;;;;;;5.88;2.58;;;4.40;99.90;;;;;;6302657;22;20331;-69
2023/05/03 02:39:28;;;;;;;3.92;3.03;;;4.40;99.90;;;;;;6303229;22;20019;-70
2023/05/03 02:41:53;;;;;;;5.70;2.60;;;4.40;99.90;;;;;;6275289;22;20019;-69
2023/05/03 02:44:19;;;;;;;3.65;2.53;;;4.40;99.90;;;;;;6302715;22;20072;-69
2023/05/03 02:46:45;;;;;;;3.47;2.55;;;4.40;99.90;;;;;;6275143;22;20705;-69
2023/05/03 02:49:10;;;;;;;3.80;2.40;;;4.20;99.90;;;;;;6303236;22;20023;-69
2023/05/03 02:51:36;;;;;;;6.35;2.60;;;4.20;99.90;;;;;;6275505;22;20022;-69
2023/05/03 02:54:02;;;;;;;2.60;2.40;;;4.30;99.90;;;;;;6303653;22;20667;-69
2023/05/03 02:56:27;;;;;;;3.97;2.45;;;4.20;99.90;;;;;;6303605;22;20086;-69
2023/05/03 02:58:54;;;;;;;4.43;2.92;;;4.20;99.90;;;;;;6303565;22;20019;-69
2023/05/03 03:01:20;;;;;;;7.35;2.75;;;4.20;99.90;;;;;;6303599;22;20018;-69
2023/05/03 03:03:46;;;;;;;5.70;2.58;;;4.10;99.90;;;;;;6303464;22;20023;-69
2023/05/03 03:06:12;;;;;;;3.05;2.70;;;4.20;99.90;;;;;;6303232;22;20324;-69
2023/05/03 03:08:37;;;;;;;5.25;2.53;;;4.10;99.90;;;;;;6303367;22;20022;-69
2023/05/03 03:11:04;;;;;;;3.20;2.45;;;4.10;99.90;;;;;;6275775;22;20031;-69
2023/05/03 03:13:30;;;;;;;3.20;2.55;;;4.10;99.90;;;;;;6275767;22;20047;-69
2023/05/03 03:15:56;;;;;;;8.38;2.90;;;4.00;99.90;;;;;;6303464;22;20042;-68
2023/05/03 03:18:21;;;;;;;4.78;2.60;;;4.10;99.90;;;;;;6301655;22;20393;-69
2023/05/03 03:20:47;;;;;;;3.47;2.60;;;4.10;99.90;;;;;;6302495;22;20019;-69
2023/05/03 03:23:13;;;;;;;8.35;3.25;;;4.10;99.90;;;;;;6302438;22;20664;-69
2023/05/03 03:25:40;;;;;;;3.17;2.60;;;4.10;99.90;;;;;;6302478;22;20068;-69
2023/05/03 03:28:06;;;;;;;2.55;2.35;;;4.10;99.90;;;;;;6302492;22;20391;-69
2023/05/03 03:30:32;;;;;;;5.65;3.03;;;4.10;99.90;;;;;;6275291;22;20019;-69
2023/05/03 03:32:57;;;;;;;3.53;3.08;;;4.10;99.90;;;;;;6302383;22;20023;-69
2023/05/03 03:35:24;;;;;;;2.45;2.25;;;4.00;99.90;;;;;;6274988;22;20023;-69
2023/05/03 03:37:49;;;;;;;4.53;2.72;;;4.00;99.90;;;;;;6303158;22;20019;-69
2023/05/03 03:40:15;;;;;;;3.25;2.75;;;4.00;99.90;;;;;;6275276;22;20027;-69
2023/05/03 03:42:41;;;;;;;3.22;2.95;;;3.90;99.90;;;;;;6275546;22;20399;-69
2023/05/03 03:45:07;;;;;;;3.95;3.33;;;4.00;99.90;;;;;;6303160;22;20082;-69
2023/05/03 03:47:33;;;;;;;4.55;3.53;;;4.00;99.90;;;;;;6303182;22;20019;-69
2023/05/03 03:50:02;;;;;;;3.40;3.10;;;4.00;99.90;;;;;;6303754;22;20019;-71
2023/05/03 03:52:27;;;;;;;4.75;2.65;;;4.00;99.90;;;;;;6249812;22;20046;-69
2023/05/03 03:54:53;;;;;;;5.22;3.13;;;3.70;99.90;;;;;;6275719;22;20023;-69
2023/05/03 03:57:19;;;;;;;3.58;3.20;;;3.90;99.90;;;;;;6303144;22;20023;-69
2023/05/03 03:59:44;;;;;;;3.75;2.80;;;3.90;99.90;;;;;;6303448;22;20023;-69
2023/05/03 04:02:10;;;;;;;3.90;3.05;;;3.80;99.90;;;;;;6302757;22;20084;-69
2023/05/03 04:04:36;;;;;;;3.90;2.60;;;3.90;99.90;;;;;;6301129;22;20054;-69
2023/05/03 04:07:03;;;;;;;6.05;3.58;;;3.80;99.90;;;;;;6301757;22;20447;-69
2023/05/03 04:09:28;;;;;;;3.88;3.03;;;3.80;99.90;;;;;;6302132;22;20201;-69
2023/05/03 04:11:54;;;;;;;5.10;2.60;;;3.80;99.90;;;;;;6302395;22;20111;-68
2023/05/03 04:14:20;;;;;;;3.20;2.90;;;3.90;99.90;;;;;;6302053;22;20019;-69
2023/05/03 04:16:46;;;;;;;2.90;2.67;;;3.90;99.90;;;;;;6301883;22;20347;-69
2023/05/03 04:19:12;;;;;;;3.03;2.72;;;3.90;99.90;;;;;;6301570;22;20019;-69
2023/05/03 04:21:38;;;;;;;6.25;3.00;;;3.80;99.90;;;;;;6302733;22;20015;-69
2023/05/03 04:24:06;;;;;;;10.15;3.13;;;3.80;99.90;;;;;;6302462;22;20023;-69
2023/05/03 04:26:32;;;;;;;3.92;3.20;;;3.90;99.90;;;;;;6274828;22;20073;-69
2023/05/03 04:28:58;;;;;;;6.68;3.20;;;3.80;99.90;;;;;;6302539;22;20023;-69
2023/05/03 04:31:25;;;;;;;5.22;3.58;;;3.80;99.90;;;;;;6302687;22;20068;-69
2023/05/03 04:33:51;;;;;;;5.18;3.17;;;3.90;99.90;;;;;;6302065;22;20023;-69
2023/05/03 04:36:17;;;;;;;7.72;3.00;;;3.90;99.90;;;;;;6274880;22;20455;-69
2023/05/03 04:38:43;;;;;;;4.88;3.50;;;3.90;99.90;;;;;;6302885;22;20407;-68
2023/05/03 04:41:10;;;;;;;3.63;3.10;;;3.90;99.90;;;;;;6302617;22;20096;-68
2023/05/03 04:43:36;;;;;;;3.47;2.97;;;3.90;99.90;;;;;;6249510;22;20023;-68
2023/05/03 04:46:02;;;;;;;9.95;3.03;;;3.90;99.90;;;;;;6274888;22;20022;-68
2023/05/03 04:48:28;;;;;;;4.40;2.80;;;4.00;99.90;;;;;;6302396;22;20429;-68
2023/05/03 04:50:54;;;;;;;3.30;2.60;;;4.00;99.90;;;;;;6273080;22;20055;-68
2023/05/03 04:53:20;;;;;;;5.72;3.15;;;4.00;99.90;;;;;;6302165;22;20315;-69
2023/05/03 04:55:46;;;;;;;4.95;2.72;;;4.00;99.90;;;;;;6303868;22;20015;-69
2023/05/03 04:58:12;;;;;;;3.20;2.90;;;4.00;99.90;;;;;;6304714;22;20023;-69
2023/05/03 05:00:40;;;;;;;2.83;2.60;;;4.00;99.90;;;;;;6304062;22;20316;-68
2023/05/03 05:03:06;;;;;;;4.47;2.72;;;4.10;99.90;;;;;;6304476;22;20019;-69
2023/05/03 05:05:32;;;;;;;5.95;3.40;;;4.20;99.90;;;;;;6276242;22;20410;-68
2023/05/03 05:07:58;;;;;;;3.20;2.88;;;4.20;99.90;;;;;;6304450;22;20073;-70
2023/05/03 05:10:24;;;;;;;4.05;2.70;;;4.10;99.90;;;;;;6304640;22;20023;-68
2023/05/03 05:12:50;;;;;;;4.18;3.50;;;4.10;99.90;;;;;;6276654;22;20390;-69
2023/05/03 05:15:16;;;;;;;4.60;3.17;;;4.30;99.90;;;;;;6304517;22;20050;-69
2023/05/03 05:17:42;;;;;;;4.85;3.25;;;4.30;99.90;;;;;;6304261;22;20512;-69
2023/05/03 05:20:11;;;;;;;5.28;3.20;;;4.30;99.90;;;;;;6303925;22;20019;-69
2023/05/03 05:22:39;;;;;;;3.80;2.97;;;4.30;99.90;;;;;;6304316;22;20026;-69
2023/05/03 05:25:06;;;;;;;5.38;3.33;;;4.40;99.90;;;;;;6275784;22;20049;-69
2023/05/03 05:27:33;;;;;;;4.65;2.92;;;4.40;99.90;;;;;;6303806;22;20451;-69
2023/05/03 05:29:59;;;;;;;6.13;3.10;;;4.60;99.90;;;;;;6304108;22;20024;-69
2023/05/03 05:32:25;;;;;;;4.72;2.92;;;4.50;99.90;;;;;;6305125;22;20350;-69
2023/05/03 05:34:54;;;;;;;4.57;2.92;;;4.60;99.90;;;;;;6305966;22;20019;-69
2023/05/03 05:37:21;;;;;;;3.67;3.25;;;4.60;99.90;;;;;;6302821;22;20027;-69
2023/05/03 05:39:47;;;;;;;3.50;3.20;;;4.80;99.90;;;;;;6305096;22;20300;-69
2023/05/03 05:42:13;;;;;;;4.43;3.05;;;4.90;99.90;;;;;;6305164;22;20109;-69
2023/05/03 05:44:39;;;;;;;5.97;3.10;;;4.90;99.90;;;;;;6305062;22;20729;-69
2023/05/03 05:47:05;;;;;;;6.43;3.75;;;5.00;99.90;;;;;;6304951;22;20019;-69
2023/05/03 05:49:31;;;;;;;4.15;3.45;;;5.10;99.90;;;;;;6305369;22;20098;-69
2023/05/03 05:51:57;;;;;;;6.72;3.80;;;5.20;99.90;;;;;;6305046;22;20038;-69
2023/05/03 05:54:23;;;;;;;11.98;3.28;;;5.20;99.90;;;;;;6305347;22;20018;-69
2023/05/03 05:56:49;;;;;;;8.35;4.05;;;5.30;99.90;;;;;;6305859;22;20062;-68
2023/05/03 05:59:15;;;;;;;7.82;3.55;;;5.40;99.90;;;;;;6276652;22;20080;-68
2023/05/03 06:01:44;;;;;;;8.35;3.92;;;5.50;99.90;;;;;;6304105;22;20343;-68
2023/05/03 06:04:10;;;;;;;5.57;3.88;;;5.60;99.90;;;;;;6304231;22;20125;-68
2023/05/03 06:06:36;;;;;;;4.78;3.15;;;5.70;99.90;;;;;;6303230;22;20026;-68
2023/05/03 06:09:02;;;;;;;8.27;4.63;;;5.70;99.90;;;;;;6303913;22;20011;-69
2023/05/03 06:11:28;;;;;;;6.57;3.38;;;5.80;99.90;;;;;;6303966;22;20042;-68
2023/05/03 06:13:55;;;;;;;3.70;3.33;;;5.90;99.90;;;;;;6303150;22;20023;-68
2023/05/03 06:16:21;;;;;;;7.68;3.67;;;6.00;99.90;;;;;;6275863;22;20015;-69
2023/05/03 06:18:47;;;;;;;6.10;3.40;;;6.20;99.90;;;;;;6303753;22;20015;-69
2023/05/03 06:21:13;;;;;;;7.93;4.32;;;6.20;99.90;;;;;;6302291;22;20015;-69
2023/05/03 06:23:39;;;;;;;6.75;3.80;;;6.40;99.90;;;;;;6275347;22;20065;-69
2023/05/03 06:26:05;;;;;;;5.03;3.35;;;6.40;99.90;;;;;;6302953;22;20341;-69
2023/05/03 06:28:31;;;;;;;6.82;3.47;;;6.50;99.90;;;;;;6275012;22;20023;-69
2023/05/03 06:30:56;;;;;;;9.30;3.60;;;6.50;99.90;;;;;;6302531;22;20022;-69
2023/05/03 06:33:22;;;;;;;5.53;3.17;;;6.70;99.90;;;;;;6302653;22;20080;-71
2023/05/03 06:35:48;;;;;;;6.13;3.40;;;6.80;99.90;;;;;;6302676;22;20022;-69
2023/05/03 06:38:14;;;;;;;3.30;2.60;;;6.90;99.90;;;;;;6303284;22;20031;-69
2023/05/03 06:40:42;;;;;;;5.18;2.60;;;7.00;99.90;;;;;;6303152;22;20076;-69
2023/05/03 06:43:08;;;;;;;4.03;2.85;;;7.10;99.90;;;;;;6303348;22;20103;-69
2023/05/03 06:45:34;;;;;;;3.15;2.85;;;7.20;99.90;;;;;;6303237;22;20058;-68
2023/05/03 06:48:00;;;;;;;9.00;3.13;;;7.30;99.90;;;;;;6275739;22;20519;-69
2023/05/03 06:50:25;;;;;;;4.32;2.80;;;7.30;99.90;;;;;;6303180;22;20094;-69
2023/05/03 06:52:53;;;;;;;3.95;2.53;;;7.30;99.90;;;;;;6276031;22;20023;-69
2023/05/03 06:55:18;;;;;;;5.07;2.90;;;7.40;99.90;;;;;;6303072;22;20051;-67
2023/05/03 06:57:47;;;;;;;8.23;2.65;;;7.60;99.90;;;;;;6275832;22;20085;-69
2023/05/03 07:00:13;;;;;;;3.45;2.38;;;7.60;99.90;;;;;;6302967;22;20019;-69
2023/05/03 07:02:39;;;;;;;3.85;2.58;;;7.70;99.90;;;;;;6303010;22;20736;-69
2023/05/03 07:05:05;;;;;;;3.22;2.60;;;7.80;99.90;;;;;;6302847;22;20054;-70
2023/05/03 07:07:32;;;;;;;4.18;2.58;;;7.80;99.90;;;;;;6301174;22;20093;-69
2023/05/03 07:09:58;;;;;;;8.90;3.22;;;8.00;99.90;;;;;;6302254;22;20034;-69
2023/05/03 07:12:27;;;;;;;4.97;3.35;;;8.20;99.90;;;;;;6301908;22;20451;-69
2023/05/03 07:14:56;;;;;;;4.93;2.78;;;8.40;99.90;;;;;;6302489;22;20026;-70
2023/05/03 07:17:22;;;;;;;4.15;2.55;;;8.40;99.90;;;;;;6302547;22;20236;-69
2023/05/03 07:19:49;;;;;;;2.75;2.55;;;8.40;99.90;;;;;;6302165;22;20454;-67
2023/05/03 07:22:15;;;;;;;4.03;2.85;;;8.40;99.90;;;;;;6302510;22;20379;-69
2023/05/03 07:24:41;;;;;;;3.45;2.30;;;8.50;99.90;;;;;;6275501;22;20095;-68
2023/05/03 07:27:07;;;;;;;3.13;2.10;;;8.60;99.90;;;;;;6302319;22;20469;-68
2023/05/03 07:29:33;;;;;;;3.53;2.13;;;8.60;99.90;;;;;;6275673;22;20019;-69
2023/05/03 07:31:59;;;;;;;4.53;1.85;;;8.60;99.90;;;;;;6275067;22;20065;-69
2023/05/03 07:34:24;;;;;;;3.25;2.22;;;8.80;99.90;;;;;;6302623;22;20331;-69
2023/05/03 07:36:53;;;;;;;1.80;1.70;;;8.90;99.90;;;;;;6302748;22;20084;-69
2023/05/03 07:39:19;;;;;;;2.58;1.95;;;8.90;99.90;;;;;;6303041;22;20042;-69
2023/05/03 07:41:45;;;;;;;3.80;2.60;;;8.90;99.90;;;;;;6274888;22;20513;-68
2023/05/03 07:44:11;;;;;;;5.57;2.53;;;9.00;99.90;;;;;;6302953;22;20011;-69
2023/05/03 07:46:37;;;;;;;7.15;2.42;;;9.10;99.90;;;;;;6302521;22;20015;-69
2023/05/03 07:49:04;;;;;;;3.33;2.17;;;9.10;99.90;;;;;;6302868;22;20129;-69
2023/05/03 07:51:33;;;;;;;3.33;2.40;;;9.20;99.90;;;;;;6302517;22;20459;-69
2023/05/03 07:53:59;;;;;;;2.67;1.98;;;9.10;99.90;;;;;;6301049;22;20015;-69
2023/05/03 07:56:27;;;;;;;3.78;2.17;;;9.10;99.90;;;;;;6300732;22;20019;-69
2023/05/03 07:58:53;;;;;;;2.92;2.20;;;9.10;99.90;;;;;;6301483;22;20023;-69
2023/05/03 08:01:20;;;;;;;2.42;1.88;;;9.10;99.90;;;;;;6301864;22;20066;-69
2023/05/03 08:03:49;;;;;;;3.17;2.00;;;9.00;99.90;;;;;;6302202;22;20011;-69
2023/05/03 08:06:15;;;;;;;2.60;2.30;;;9.10;99.90;;;;;;6302441;22;20015;-69
2023/05/03 08:08:41;;;;;;;6.85;2.13;;;9.10;99.90;;;;;;6301772;22;20023;-69
2023/05/03 08:11:07;;;;;;;4.43;2.20;;;9.10;99.90;;;;;;6302269;22;20015;-69
2023/05/03 08:13:33;;;;;;;3.28;2.22;;;9.10;99.90;;;;;;6302475;22;20489;-69
2023/05/03 08:15:59;;;;;;;3.45;1.98;;;9.10;99.90;;;;;;6302682;22;20015;-69
2023/05/03 08:18:26;;;;;;;3.30;2.10;;;9.20;99.90;;;;;;6302738;22;20022;-69
2023/05/03 08:20:52;;;;;;;2.58;1.75;;;9.40;99.90;;;;;;6302171;22;20013;-69
2023/05/03 08:23:18;;;;;;;2.42;2.20;;;9.40;99.90;;;;;;6301722;22;20042;-70
2023/05/03 08:25:44;;;;;;;2.47;1.80;;;9.40;99.90;;;;;;6301645;22;20023;-67
2023/05/03 08:28:10;;;;;;;3.97;1.92;;;9.90;99.90;;;;;;6273912;22;20027;-69
2023/05/03 08:30:36;;;;;;;7.03;2.35;;;9.90;99.90;;;;;;6275250;22;20030;-69
2023/05/03 08:33:02;;;;;;;5.20;2.10;;;9.70;99.90;;;;;;6304656;22;20408;-69
2023/05/03 08:35:28;;;;;;;2.67;2.00;;;9.70;99.90;;;;;;6304571;22;20054;-69
2023/05/03 08:37:54;;;;;;;2.25;2.10;;;9.70;99.90;;;;;;6302684;22;20023;-68
2023/05/03 08:40:21;;;;;;;2.63;1.80;;;9.70;99.90;;;;;;6301061;22;20086;-69
2023/05/03 08:42:47;;;;;;;3.00;2.10;;;9.70;99.90;;;;;;6275660;22;20365;-69
2023/05/03 08:45:16;;;;;;;7.22;2.33;;;9.70;99.90;;;;;;6303632;22;20027;-69
2023/05/03 08:47:46;;;;;;;2.47;1.90;;;9.70;99.90;;;;;;6276239;22;20023;-69
2023/05/03 08:50:14;;;;;;;4.10;2.45;;;9.60;99.90;;;;;;6303515;22;20008;-69
2023/05/03 08:52:41;;;;;;;1.60;1.50;;;9.60;99.90;;;;;;6303508;22;20019;-69
2023/05/03 08:55:08;;;;;;;5.25;2.15;;;9.60;99.90;;;;;;6276125;22;20011;-69
2023/05/03 08:57:34;;;;;;;4.18;1.75;;;9.60;99.90;;;;;;6304645;22;20358;-70
2023/05/03 09:00:03;;;;;;;2.67;1.90;;;9.60;99.90;;;;;;6304815;22;20528;-69
2023/05/03 09:02:29;;;;;;;4.25;2.30;;;9.70;99.90;;;;;;6276688;22;20027;-70
2023/05/03 09:04:55;;;;;;;5.28;2.00;;;9.80;99.90;;;;;;6303255;22;20309;-70
2023/05/03 09:07:21;;;;;;;4.43;2.15;;;9.90;99.90;;;;;;6304618;22;20015;-70
2023/05/03 09:09:47;;;;;;;5.20;2.20;;;10.00;99.90;;;;;;6304109;22;20014;-70
2023/05/03 09:12:36;;;;;;;2.75;2.35;;;10.20;99.90;;;;;;6276717;22;20094;-69
2023/05/03 09:15:02;;;;;;;4.03;1.90;;;10.50;99.90;;;;;;6276361;22;20352;-71
2023/05/03 09:17:28;;;;;;;2.75;1.98;;;10.50;99.90;;;;;;6304224;22;20019;-71
2023/05/03 09:19:57;;;;;;;4.55;2.05;;;10.60;99.90;;;;;;6303902;22;20027;-70
2023/05/03 09:22:26;;;;;;;4.60;1.80;;;10.70;99.90;;;;;;6304104;22;20019;-70
2023/05/03 09:24:57;;;;;;;5.07;1.95;;;10.60;99.90;;;;;;6302230;22;20433;-70
2023/05/03 09:27:23;;;;;;;2.70;2.00;;;10.80;99.90;;;;;;6303746;22;20019;-70
2023/05/03 09:29:50;;;;;;;4.25;2.28;;;10.70;99.90;;;;;;6303778;22;20076;-70
2023/05/03 09:32:16;;;;;;;2.55;2.05;;;10.90;99.90;;;;;;6303412;22;20053;-70
2023/05/03 09:34:43;;;;;;;4.60;1.70;;;11.00;99.90;;;;;;6302892;22;20023;-70
2023/05/03 09:37:10;;;;;;;3.17;1.98;;;10.90;99.90;;;;;;6303159;22;20781;-70
2023/05/03 09:39:35;;;;;;;2.30;2.08;;;10.90;99.90;;;;;;6303225;22;20011;-70
2023/05/03 09:42:15;;;;;;;2.70;2.15;;;11.00;99.90;;;;;;6276797;22;20042;-69
2023/05/03 09:44:51;;;;;;;12.52;2.10;;;11.30;99.90;;;;;;6304601;22;20361;-69
2023/05/03 09:47:17;;;;;;;5.65;2.20;;;11.40;99.90;;;;;;6303760;22;20026;-70
2023/05/03 09:49:43;;;;;;;3.58;2.00;;;11.20;99.90;;;;;;6303787;22;20015;-69
2023/05/03 09:52:10;;;;;;;2.83;2.10;;;11.20;99.90;;;;;;6303842;22;20062;-69
2023/05/03 09:54:36;;;;;;;2.42;1.95;;;11.40;99.90;;;;;;6276491;22;20042;-69
2023/05/03 09:57:06;;;;;;;6.15;2.05;;;11.40;99.90;;;;;;6303950;22;20374;-71
2023/05/03 09:59:34;;;;;;;3.55;2.13;;;11.50;99.90;;;;;;6304345;22;20084;-70
2023/05/03 10:02:02;;;;;;;4.88;1.90;;;11.80;99.90;;;;;;6303737;22;20480;-70
2023/05/03 10:04:37;;;;;;;4.90;3.45;;;11.70;99.90;;;;;;6302615;22;20012;-70
2023/05/03 10:07:06;;;;;;;2.53;2.33;;;11.70;99.90;;;;;;6303470;22;20058;-69
2023/05/03 10:09:39;;;;;;;4.15;2.10;;;11.70;99.90;;;;;;6303957;22;20022;-69
2023/05/03 10:12:07;;;;;;;2.15;1.95;;;11.60;99.90;;;;;;6301747;22;20011;-69
2023/05/03 10:14:34;;;;;;;3.70;2.15;;;11.70;99.90;;;;;;6302942;22;20235;-69
2023/05/03 10:17:03;;;;;;;4.28;2.33;;;11.60;99.90;;;;;;6302834;22;20019;-70
2023/05/03 10:19:39;;;;;;;1.80;1.70;;;11.60;99.90;;;;;;6302370;22;20072;-70
2023/05/03 10:22:07;;;;;;;4.50;2.22;;;11.50;99.90;;;;;;6301883;22;20868;-69
2023/05/03 10:24:34;;;;;;;3.78;2.50;;;11.50;99.90;;;;;;6302718;22;20090;-69
2023/05/03 10:27:00;;;;;;;8.60;2.28;;;11.50;99.90;;;;;;6303080;22;20624;-69
2023/05/03 10:29:36;;;;;;;2.38;1.95;;;11.40;99.90;;;;;;6303278;22;20037;-70
2023/05/03 10:32:05;;;;;;;2.97;2.13;;;11.40;99.90;;;;;;6303084;22;20090;-70
2023/05/03 10:34:32;;;;;;;2.70;2.05;;;11.50;99.90;;;;;;6302556;22;20097;-70
2023/05/03 10:37:02;;;;;;;2.58;2.30;;;11.60;99.90;;;;;;6303309;22;20046;-71
2023/05/03 10:39:29;;;;;;;2.60;1.92;;;11.70;99.90;;;;;;6303052;22;20011;-70
2023/05/03 10:42:07;;;;;;;2.15;1.67;;;11.70;99.90;;;;;;6303435;22;20019;-69
2023/05/03 10:44:48;;;;;;;3.78;1.88;;;11.70;99.90;;;;;;6303460;22;20098;-70
2023/05/03 10:47:32;;;;;;;4.40;2.25;;;11.70;99.90;;;;;;6303255;22;20023;-70
2023/05/03 10:50:16;;;;;;;2.13;1.98;;;11.80;99.90;;;;;;6275375;22;20087;-70
2023/05/03 10:52:41;;;;;;;1.80;1.70;;;11.80;99.90;;;;;;6303207;22;20019;-70
2023/05/03 10:55:12;;;;;;;2.97;2.45;;;11.90;99.90;;;;;;6303558;22;20015;-69
2023/05/03 10:57:41;;;;;;;2.88;1.83;;;12.00;99.90;;;;;;6301193;22;20055;-70
2023/05/03 11:00:11;;;;;;;2.17;1.98;;;11.90;99.90;;;;;;6302931;22;20356;-70
2023/05/03 11:02:49;;;;;;;3.78;2.30;;;11.90;99.90;;;;;;6302005;22;20019;-70
2023/05/03 11:05:17;;;;;;;4.55;2.17;;;11.90;99.90;;;;;;6301647;22;20023;-69
2023/05/03 11:07:43;;;;;;;3.00;2.40;;;11.90;99.90;;;;;;6301884;22;20396;-69
2023/05/03 11:10:16;;;;;;;3.28;2.22;;;12.00;99.90;;;;;;6302096;22;20011;-70
2023/05/03 11:12:42;;;;;;;8.68;3.20;;;12.10;99.90;;;;;;6275497;22;20320;-69
2023/05/03 11:15:10;;;;;;;2.60;2.20;;;12.20;99.90;;;;;;6302646;22;20072;-70
2023/05/03 11:17:37;;;;;;;3.53;2.03;;;12.20;99.90;;;;;;6302612;22;20732;-71
2023/05/03 11:20:07;;;;;;;6.75;2.20;;;12.20;99.90;;;;;;6302342;22;20019;-70
2023/05/03 11:22:34;;;;;;;3.60;2.30;;;12.30;99.90;;;;;;6302659;22;20131;-70
2023/05/03 11:25:00;;;;;;;4.50;3.88;;;12.40;99.90;;;;;;6302889;22;20043;-70
2023/05/03 11:27:25;;;;;;;4.07;1.92;;;12.30;99.90;;;;;;6302792;22;20026;-70
2023/05/03 11:29:52;;;;;;;7.70;2.47;;;12.50;99.90;;;;;;6302702;22;20070;-70
2023/05/03 11:32:17;;;;;;;4.47;2.33;;;12.50;99.90;;;;;;6274952;22;20015;-70
2023/05/03 11:34:44;;;;;;;4.80;2.22;;;12.40;99.90;;;;;;6301670;22;20023;-71
2023/05/03 11:37:10;;;;;;;3.65;2.10;;;12.40;99.90;;;;;;6302298;22;20018;-69
2023/05/03 11:39:36;;;;;;;2.67;2.15;;;12.40;99.90;;;;;;6302701;22;20015;-70
2023/05/03 11:42:03;;;;;;;4.97;2.55;;;12.40;99.90;;;;;;6300260;22;20443;-70
2023/05/03 11:44:29;;;;;;;4.25;2.22;;;12.30;99.90;;;;;;6301146;22;20092;-70
2023/05/03 11:46:55;;;;;;;3.03;2.10;;;12.40;99.90;;;;;;6273050;22;20451;-71
2023/05/03 11:49:22;;;;;;;3.95;2.30;;;12.50;99.90;;;;;;6300695;22;20019;-70
2023/05/03 11:51:49;;;;;;;2.53;2.25;;;12.50;99.90;;;;;;6301219;22;20069;-71
2023/05/03 11:54:16;;;;;;;2.05;1.88;;;12.60;99.90;;;;;;6301625;22;20026;-70
2023/05/03 11:56:41;;;;;;;3.25;2.28;;;12.70;99.90;;;;;;6273590;22;20025;-70
2023/05/03 11:59:07;;;;;;;2.63;2.15;;;12.70;99.90;;;;;;6301884;22;20011;-70
2023/05/03 12:01:33;;;;;;;3.78;2.42;;;12.50;99.90;;;;;;6274255;22;20027;-70
2023/05/03 12:04:01;;;;;;;4.70;2.35;;;12.50;99.90;;;;;;6302530;22;20015;-70
2023/05/03 12:06:30;;;;;;;4.60;2.33;;;12.50;99.90;;;;;;6302267;22;20025;-70
2023/05/03 12:08:56;;;;;;;3.25;2.50;;;12.50;99.90;;;;;;6302109;22;20464;-71
2023/05/03 12:11:22;;;;;;;4.25;2.05;;;12.60;99.90;;;;;;6303043;22;20019;-70
2023/05/03 12:14:01;;;;;;;2.90;2.70;;;12.80;99.90;;;;;;6302675;22;20034;-70
2023/05/03 12:16:28;;;;;;;3.35;2.28;;;12.60;99.90;;;;;;6302236;22;20011;-70
2023/05/03 12:19:01;;;;;;;3.80;2.60;;;12.70;99.90;;;;;;6274726;22;20027;-70
2023/05/03 12:21:45;;;;;;;5.32;2.80;;;12.80;99.90;;;;;;6302345;22;20007;-70
2023/05/03 12:24:11;;;;;;;3.13;2.85;;;12.70;99.90;;;;;;6274669;22;20019;-70
2023/05/03 12:26:37;;;;;;;6.95;3.28;;;12.80;99.90;;;;;;6302526;22;20455;-70
2023/05/03 12:29:03;;;;;;;5.13;2.75;;;12.80;99.90;;;;;;6299277;22;20023;-69
2023/05/03 12:31:29;;;;;;;4.68;3.15;;;12.90;99.90;;;;;;6301057;22;20132;-69
2023/05/03 12:33:55;;;;;;;3.85;2.97;;;12.80;99.90;;;;;;6301270;22;20106;-70
2023/05/03 12:36:21;;;;;;;3.15;2.72;;;12.80;99.90;;;;;;6301707;22;20022;-69
2023/05/03 12:38:47;;;;;;;6.18;3.08;;;12.70;99.90;;;;;;6301861;22;20438;-70
2023/05/03 12:41:14;;;;;;;4.28;2.53;;;12.70;99.90;;;;;;6301402;22;20022;-69
2023/05/03 12:43:40;;;;;;;4.53;2.50;;;12.80;99.90;;;;;;6300808;22;20022;-70
2023/05/03 12:46:05;;;;;;;5.03;2.78;;;12.80;99.90;;;;;;6273625;22;20240;-70
2023/05/03 12:48:31;;;;;;;2.70;2.20;;;12.90;99.90;;;;;;6301655;22;20331;-70
2023/05/03 12:50:57;;;;;;;3.78;2.25;;;12.80;99.90;;;;;;6301674;22;20023;-70
2023/05/03 12:53:24;;;;;;;6.55;3.25;;;12.90;99.90;;;;;;6302036;22;20382;-70
2023/05/03 12:55:50;;;;;;;3.83;2.35;;;13.10;99.90;;;;;;6302340;22;20015;-70